sensor_id;sensor_type;location;lat;lon;timestamp;temperature;humidity
35541;DHT22;21650;48.840;9.162;2023-08-17T00:02:04;20.50;99.90
35541;DHT22;21650;48.840;9.162;2023-08-17T00:04:30;20.50;99.90
35541;DHT22;21650;48.840;9.162;2023-08-17T00:06:55;20.50;99.90
35541;DHT22;21650;48.840;9.162;2023-08-17T00:09:21;20.60;99.90
35541;DHT22;21650;48.840;9.162;2023-08-17T00:11:47;20.70;99.90
35541;DHT22;21650;48.840;9.162;2023-08-17T00:14:12;20.60;99.90
35541;DHT22;21650;48.840;9.162;2023-08-17T00:16:38;20.60;99.90
35541;DHT22;21650;48.840;9.162;2023-08-17T00:19:04;20.60;99.90
35541;DHT22;21650;48.840;9.162;2023-08-17T00:21:29;20.60;99.90
35541;DHT22;21650;48.840;9.162;2023-08-17T00:23:55;20.70;99.90
35541;DHT22;21650;48.840;9.162;2023-08-17T00:26:21;20.60;99.90
35541;DHT22;21650;48.840;9.162;2023-08-17T00:28:47;20.50;99.90
35541;DHT22;21650;48.840;9.162;2023-08-17T00:31:12;20.40;99.90
35541;DHT22;21650;48.840;9.162;2023-08-17T00:33:38;20.40;99.90
35541;DHT22;21650;48.840;9.162;2023-08-17T00:36:04;20.30;99.90
35541;DHT22;21650;48.840;9.162;2023-08-17T00:38:29;20.20;99.90
35541;DHT22;21650;48.840;9.162;2023-08-17T00:40:55;20.30;99.90
35541;DHT22;21650;48.840;9.162;2023-08-17T00:43:21;20.30;99.90
35541;DHT22;21650;48.840;9.162;2023-08-17T00:45:46;20.30;99.90
35541;DHT22;21650;48.840;9.162;2023-08-17T00:48:12;20.40;99.90
35541;DHT22;21650;48.840;9.162;2023-08-17T00:50:39;20.40;99.90
35541;DHT22;21650;48.840;9.162;2023-08-17T00:53:05;20.40;99.90
35541;DHT22;21650;48.840;9.162;2023-08-17T00:55:33;20.40;99.90
35541;DHT22;21650;48.840;9.162;2023-08-17T00:57:58;20.40;99.90
35541;DHT22;21650;48.840;9.162;2023-08-17T01:00:25;20.30;99.90
35541;DHT22;21650;48.840;9.162;2023-08-17T01:02:53;20.20;99.90
35541;DHT22;21650;48.840;9.162;2023-08-17T01:05:20;20.20;99.90
35541;DHT22;21650;48.840;9.162;2023-08-17T01:07:46;20.20;99.90
35541;DHT22;21650;48.840;9.162;2023-08-17T01:10:11;20.20;99.90
35541;DHT22;21650;48.840;9.162;2023-08-17T01:13:09;20.30;99.90
35541;DHT22;21650;48.840;9.162;2023-08-17T01:15:37;20.40;99.90
35541;DHT22;21650;48.840;9.162;2023-08-17T01:20:51;20.50;99.90
35541;DHT22;21650;48.840;9.162;2023-08-17T01:23:18;20.60;99.90
35541;DHT22;21650;48.840;9.162;2023-08-17T01:25:43;20.70;99.90
35541;DHT22;21650;48.840;9.162;2023-08-17T01:28:09;20.70;99.90
35541;DHT22;21650;48.840;9.162;2023-08-17T01:31:03;20.50;99.90
35541;DHT22;21650;48.840;9.162;2023-08-17T01:33:35;20.40;99.90
35541;DHT22;21650;48.840;9.162;2023-08-17T01:36:16;20.40;99.90
35541;DHT22;21650;48.840;9.162;2023-08-17T01:38:44;20.30;99.90
35541;DHT22;21650;48.840;9.162;2023-08-17T01:41:13;20.20;99.90
35541;DHT22;21650;48.840;9.162;2023-08-17T01:43:42;20.20;99.90
35541;DHT22;21650;48.840;9.162;2023-08-17T01:46:16;20.20;99.90
35541;DHT22;21650;48.840;9.162;2023-08-17T01:48:42;20.10;99.90
35541;DHT22;21650;48.840;9.162;2023-08-17T01:51:09;20.10;99.90
35541;DHT22;21650;48.840;9.162;2023-08-17T01:53:35;20.10;99.90
35541;DHT22;21650;48.840;9.162;2023-08-17T01:56:00;20.20;99.90
35541;DHT22;21650;48.840;9.162;2023-08-17T01:58:26;20.40;99.90
35541;DHT22;21650;48.840;9.162;2023-08-17T02:00:51;20.50;99.90
35541;DHT22;21650;48.840;9.162;2023-08-17T02:03:17;20.50;99.90
35541;DHT22;21650;48.840;9.162;2023-08-17T02:05:46;20.60;99.90
35541;DHT22;21650;48.840;9.162;2023-08-17T02:08:12;20.40;99.90
35541;DHT22;21650;48.840;9.162;2023-08-17T02:10:37;20.30;99.90
35541;DHT22;21650;48.840;9.162;2023-08-17T02:13:03;20.20;99.90
35541;DHT22;21650;48.840;9.162;2023-08-17T02:15:29;20.40;99.90
35541;DHT22;21650;48.840;9.162;2023-08-17T02:17:54;20.40;99.90
35541;DHT22;21650;48.840;9.162;2023-08-17T02:20:20;20.40;99.90
35541;DHT22;21650;48.840;9.162;2023-08-17T02:22:46;20.30;99.90
35541;DHT22;21650;48.840;9.162;2023-08-17T02:25:11;20.20;99.90
35541;DHT22;21650;48.840;9.162;2023-08-17T02:27:37;20.20;99.90
35541;DHT22;21650;48.840;9.162;2023-08-17T02:30:03;20.30;99.90
35541;DHT22;21650;48.840;9.162;2023-08-17T02:32:29;20.30;99.90
35541;DHT22;21650;48.840;9.162;2023-08-17T02:34:55;20.20;99.90
35541;DHT22;21650;48.840;9.162;2023-08-17T02:37:20;20.20;99.90
35541;DHT22;21650;48.840;9.162;2023-08-17T02:39:46;20.10;99.90
35541;DHT22;21650;48.840;9.162;2023-08-17T02:42:11;20.10;99.90
35541;DHT22;21650;48.840;9.162;2023-08-17T02:44:37;20.20;99.90
35541;DHT22;21650;48.840;9.162;2023-08-17T02:47:02;20.30;99.90
35541;DHT22;21650;48.840;9.162;2023-08-17T02:49:28;20.30;99.90
35541;DHT22;21650;48.840;9.162;2023-08-17T02:51:53;20.20;99.90
35541;DHT22;21650;48.840;9.162;2023-08-17T02:54:19;20.20;99.90
35541;DHT22;21650;48.840;9.162;2023-08-17T02:56:44;20.10;99.90
35541;DHT22;21650;48.840;9.162;2023-08-17T02:59:10;20.10;99.90
35541;DHT22;21650;48.840;9.162;2023-08-17T03:01:35;20.10;99.90
35541;DHT22;21650;48.840;9.162;2023-08-17T03:04:01;20.10;99.90
35541;DHT22;21650;48.840;9.162;2023-08-17T03:06:26;20.10;99.90
35541;DHT22;21650;48.840;9.162;2023-08-17T03:08:52;20.10;99.90
35541;DHT22;21650;48.840;9.162;2023-08-17T03:11:19;20.10;99.90
35541;DHT22;21650;48.840;9.162;2023-08-17T03:13:45;20.10;99.90
35541;DHT22;21650;48.840;9.162;2023-08-17T03:16:13;20.20;99.90
35541;DHT22;21650;48.840;9.162;2023-08-17T03:18:38;20.20;99.90
35541;DHT22;21650;48.840;9.162;2023-08-17T03:21:04;20.20;99.90
35541;DHT22;21650;48.840;9.162;2023-08-17T03:23:29;20.20;99.90
35541;DHT22;21650;48.840;9.162;2023-08-17T03:25:55;20.20;99.90
35541;DHT22;21650;48.840;9.162;2023-08-17T03:28:20;20.20;99.90
35541;DHT22;21650;48.840;9.162;2023-08-17T03:30:46;20.20;99.90
35541;DHT22;21650;48.840;9.162;2023-08-17T03:33:12;20.20;99.90
35541;DHT22;21650;48.840;9.162;2023-08-17T03:35:37;20.30;99.90
35541;DHT22;21650;48.840;9.162;2023-08-17T03:38:03;20.30;99.90
35541;DHT22;21650;48.840;9.162;2023-08-17T03:40:28;20.40;99.90
35541;DHT22;21650;48.840;9.162;2023-08-17T03:42:54;20.50;99.90
35541;DHT22;21650;48.840;9.162;2023-08-17T03:45:20;20.50;99.90
35541;DHT22;21650;48.840;9.162;2023-08-17T03:47:45;20.40;99.90
35541;DHT22;21650;48.840;9.162;2023-08-17T03:50:11;20.40;99.90
35541;DHT22;21650;48.840;9.162;2023-08-17T03:52:36;20.40;99.90
35541;DHT22;21650;48.840;9.162;2023-08-17T03:55:02;20.50;99.90
35541;DHT22;21650;48.840;9.162;2023-08-17T03:57:28;20.50;99.90
35541;DHT22;21650;48.840;9.162;2023-08-17T03:59:53;20.60;99.90
35541;DHT22;21650;48.840;9.162;2023-08-17T04:02:19;20.60;99.90
35541;DHT22;21650;48.840;9.162;2023-08-17T04:04:44;20.70;99.90
35541;DHT22;21650;48.840;9.162;2023-08-17T04:07:10;20.60;99.90
35541;DHT22;21650;48.840;9.162;2023-08-17T04:09:36;20.50;99.90
35541;DHT22;21650;48.840;9.162;2023-08-17T04:12:01;20.40;99.90
35541;DHT22;21650;48.840;9.162;2023-08-17T04:14:30;20.40;99.90
35541;DHT22;21650;48.840;9.162;2023-08-17T04:16:55;20.30;99.90
35541;DHT22;21650;48.840;9.162;2023-08-17T04:19:23;20.40;99.90
35541;DHT22;21650;48.840;9.162;2023-08-17T04:21:48;20.30;99.90
35541;DHT22;21650;48.840;9.162;2023-08-17T04:24:14;20.30;99.90
35541;DHT22;21650;48.840;9.162;2023-08-17T04:26:39;20.40;99.90
35541;DHT22;21650;48.840;9.162;2023-08-17T04:29:05;20.40;99.90
35541;DHT22;21650;48.840;9.162;2023-08-17T04:31:31;20.40;99.90
35541;DHT22;21650;48.840;9.162;2023-08-17T04:33:57;20.40;99.90
35541;DHT22;21650;48.840;9.162;2023-08-17T04:36:22;20.40;99.90
35541;DHT22;21650;48.840;9.162;2023-08-17T04:38:48;20.40;99.90
35541;DHT22;21650;48.840;9.162;2023-08-17T04:41:13;20.40;99.90
35541;DHT22;21650;48.840;9.162;2023-08-17T04:43:39;20.50;99.90
35541;DHT22;21650;48.840;9.162;2023-08-17T04:46:04;20.50;99.90
35541;DHT22;21650;48.840;9.162;2023-08-17T04:48:30;20.50;99.90
35541;DHT22;21650;48.840;9.162;2023-08-17T04:50:55;20.50;99.90
35541;DHT22;21650;48.840;9.162;2023-08-17T04:53:21;20.50;99.90
35541;DHT22;21650;48.840;9.162;2023-08-17T04:55:46;20.60;99.90
35541;DHT22;21650;48.840;9.162;2023-08-17T04:58:12;20.60;99.90
35541;DHT22;21650;48.840;9.162;2023-08-17T05:00:37;20.30;99.90
35541;DHT22;21650;48.840;9.162;2023-08-17T05:03:03;20.30;99.90
35541;DHT22;21650;48.840;9.162;2023-08-17T05:05:28;20.30;99.90
35541;DHT22;21650;48.840;9.162;2023-08-17T05:07:54;20.30;99.90
35541;DHT22;21650;48.840;9.162;2023-08-17T05:10:19;20.40;99.90
35541;DHT22;21650;48.840;9.162;2023-08-17T05:12:45;20.40;99.90
35541;DHT22;21650;48.840;9.162;2023-08-17T05:15:12;20.40;99.90
35541;DHT22;21650;48.840;9.162;2023-08-17T05:17:37;20.40;99.90
35541;DHT22;21650;48.840;9.162;2023-08-17T05:20:04;20.50;99.90
35541;DHT22;21650;48.840;9.162;2023-08-17T05:22:30;20.60;99.90
35541;DHT22;21650;48.840;9.162;2023-08-17T05:24:55;20.50;99.90
35541;DHT22;21650;48.840;9.162;2023-08-17T05:27:21;20.50;99.90
35541;DHT22;21650;48.840;9.162;2023-08-17T05:29:46;20.70;99.90
35541;DHT22;21650;48.840;9.162;2023-08-17T05:32:12;20.60;99.90
35541;DHT22;21650;48.840;9.162;2023-08-17T05:34:37;20.60;99.90
35541;DHT22;21650;48.840;9.162;2023-08-17T05:37:03;20.70;99.90
35541;DHT22;21650;48.840;9.162;2023-08-17T05:39:28;20.60;99.90
35541;DHT22;21650;48.840;9.162;2023-08-17T05:41:54;20.70;99.90
35541;DHT22;21650;48.840;9.162;2023-08-17T05:44:20;20.70;99.90
35541;DHT22;21650;48.840;9.162;2023-08-17T05:46:45;20.80;99.90
35541;DHT22;21650;48.840;9.162;2023-08-17T05:49:11;20.80;99.90
35541;DHT22;21650;48.840;9.162;2023-08-17T05:51:36;20.90;99.90
35541;DHT22;21650;48.840;9.162;2023-08-17T05:54:02;20.90;99.90
35541;DHT22;21650;48.840;9.162;2023-08-17T05:56:28;21.00;99.90
35541;DHT22;21650;48.840;9.162;2023-08-17T05:58:54;20.90;99.90
35541;DHT22;21650;48.840;9.162;2023-08-17T06:01:19;20.90;99.90
35541;DHT22;21650;48.840;9.162;2023-08-17T06:03:45;21.00;99.90
35541;DHT22;21650;48.840;9.162;2023-08-17T06:06:11;21.10;99.90
35541;DHT22;21650;48.840;9.162;2023-08-17T06:08:36;21.00;99.90
35541;DHT22;21650;48.840;9.162;2023-08-17T06:11:02;21.10;99.90
35541;DHT22;21650;48.840;9.162;2023-08-17T06:13:27;21.20;99.90
35541;DHT22;21650;48.840;9.162;2023-08-17T06:15:53;21.10;99.90
35541;DHT22;21650;48.840;9.162;2023-08-17T06:18:21;21.20;99.90
35541;DHT22;21650;48.840;9.162;2023-08-17T06:20:46;21.20;99.90
35541;DHT22;21650;48.840;9.162;2023-08-17T06:23:13;21.20;99.90
35541;DHT22;21650;48.840;9.162;2023-08-17T06:25:39;21.20;99.90
35541;DHT22;21650;48.840;9.162;2023-08-17T06:28:06;21.10;99.90
35541;DHT22;21650;48.840;9.162;2023-08-17T06:30:31;21.20;99.90
35541;DHT22;21650;48.840;9.162;2023-08-17T06:32:57;21.20;99.90
35541;DHT22;21650;48.840;9.162;2023-08-17T06:35:22;21.20;99.90
35541;DHT22;21650;48.840;9.162;2023-08-17T06:37:48;21.30;99.90
35541;DHT22;21650;48.840;9.162;2023-08-17T06:40:13;21.30;99.90
35541;DHT22;21650;48.840;9.162;2023-08-17T06:42:39;21.30;99.90
35541;DHT22;21650;48.840;9.162;2023-08-17T06:45:05;21.30;99.90
35541;DHT22;21650;48.840;9.162;2023-08-17T06:47:30;21.40;99.90
35541;DHT22;21650;48.840;9.162;2023-08-17T06:49:56;21.20;99.90
35541;DHT22;21650;48.840;9.162;2023-08-17T06:52:23;21.20;99.90
35541;DHT22;21650;48.840;9.162;2023-08-17T06:54:49;21.20;99.90
35541;DHT22;21650;48.840;9.162;2023-08-17T06:57:14;21.20;99.90
35541;DHT22;21650;48.840;9.162;2023-08-17T06:59:40;21.40;99.90
35541;DHT22;21650;48.840;9.162;2023-08-17T07:02:06;21.40;99.90
35541;DHT22;21650;48.840;9.162;2023-08-17T07:04:31;21.40;99.90
35541;DHT22;21650;48.840;9.162;2023-08-17T07:06:57;21.40;99.90
35541;DHT22;21650;48.840;9.162;2023-08-17T07:09:22;21.60;99.90
35541;DHT22;21650;48.840;9.162;2023-08-17T07:11:48;21.70;99.90
35541;DHT22;21650;48.840;9.162;2023-08-17T07:14:13;21.80;99.90
35541;DHT22;21650;48.840;9.162;2023-08-17T07:16:39;21.80;99.90
35541;DHT22;21650;48.840;9.162;2023-08-17T07:19:05;22.00;99.90
35541;DHT22;21650;48.840;9.162;2023-08-17T07:21:30;22.00;99.90
35541;DHT22;21650;48.840;9.162;2023-08-17T07:23:56;22.10;99.90
35541;DHT22;21650;48.840;9.162;2023-08-17T07:26:22;22.10;99.90
35541;DHT22;21650;48.840;9.162;2023-08-17T07:28:48;22.10;99.90
35541;DHT22;21650;48.840;9.162;2023-08-17T07:31:14;22.30;99.90
35541;DHT22;21650;48.840;9.162;2023-08-17T07:33:40;22.30;99.90
35541;DHT22;21650;48.840;9.162;2023-08-17T07:36:06;22.40;99.90
35541;DHT22;21650;48.840;9.162;2023-08-17T07:38:31;22.40;99.90
35541;DHT22;21650;48.840;9.162;2023-08-17T07:40:57;22.50;99.90
35541;DHT22;21650;48.840;9.162;2023-08-17T07:43:23;22.60;99.90
35541;DHT22;21650;48.840;9.162;2023-08-17T07:45:54;22.50;99.90
35541;DHT22;21650;48.840;9.162;2023-08-17T07:48:19;22.50;99.90
35541;DHT22;21650;48.840;9.162;2023-08-17T07:50:51;22.60;99.90
35541;DHT22;21650;48.840;9.162;2023-08-17T07:53:18;22.60;99.90
35541;DHT22;21650;48.840;9.162;2023-08-17T07:55:43;22.50;99.90
35541;DHT22;21650;48.840;9.162;2023-08-17T07:58:09;22.60;99.90
35541;DHT22;21650;48.840;9.162;2023-08-17T08:00:34;22.70;99.90
35541;DHT22;21650;48.840;9.162;2023-08-17T08:03:00;22.70;99.90
35541;DHT22;21650;48.840;9.162;2023-08-17T08:05:26;22.70;99.90
35541;DHT22;21650;48.840;9.162;2023-08-17T08:07:52;22.80;99.90
35541;DHT22;21650;48.840;9.162;2023-08-17T08:10:17;22.70;99.90
35541;DHT22;21650;48.840;9.162;2023-08-17T08:12:43;22.70;99.90
35541;DHT22;21650;48.840;9.162;2023-08-17T08:15:08;22.60;99.90
35541;DHT22;21650;48.840;9.162;2023-08-17T08:17:34;22.80;99.90
35541;DHT22;21650;48.840;9.162;2023-08-17T08:20:00;22.80;99.90
35541;DHT22;21650;48.840;9.162;2023-08-17T08:22:26;22.80;99.90
35541;DHT22;21650;48.840;9.162;2023-08-17T08:24:51;22.90;99.90
35541;DHT22;21650;48.840;9.162;2023-08-17T08:27:17;23.00;99.90
35541;DHT22;21650;48.840;9.162;2023-08-17T08:29:43;23.00;99.90
35541;DHT22;21650;48.840;9.162;2023-08-17T08:32:08;23.10;99.90
35541;DHT22;21650;48.840;9.162;2023-08-17T08:34:34;23.10;99.90
35541;DHT22;21650;48.840;9.162;2023-08-17T08:36:59;23.00;99.90
35541;DHT22;21650;48.840;9.162;2023-08-17T08:39:25;23.00;99.90
35541;DHT22;21650;48.840;9.162;2023-08-17T08:41:51;23.30;99.90
35541;DHT22;21650;48.840;9.162;2023-08-17T08:44:16;23.50;99.90
35541;DHT22;21650;48.840;9.162;2023-08-17T08:46:44;23.70;99.90
35541;DHT22;21650;48.840;9.162;2023-08-17T08:49:11;24.10;99.90
35541;DHT22;21650;48.840;9.162;2023-08-17T08:51:42;24.50;99.90
35541;DHT22;21650;48.840;9.162;2023-08-17T08:54:14;25.10;99.90
35541;DHT22;21650;48.840;9.162;2023-08-17T08:56:45;25.00;99.90
35541;DHT22;21650;48.840;9.162;2023-08-17T08:59:11;25.50;99.90
35541;DHT22;21650;48.840;9.162;2023-08-17T09:01:38;25.90;99.90
35541;DHT22;21650;48.840;9.162;2023-08-17T09:04:04;26.20;99.90
35541;DHT22;21650;48.840;9.162;2023-08-17T09:06:30;26.40;99.90
35541;DHT22;21650;48.840;9.162;2023-08-17T09:08:57;26.30;99.90
35541;DHT22;21650;48.840;9.162;2023-08-17T09:11:23;26.30;99.90
35541;DHT22;21650;48.840;9.162;2023-08-17T09:13:48;26.30;99.90
35541;DHT22;21650;48.840;9.162;2023-08-17T09:16:14;26.40;99.90
35541;DHT22;21650;48.840;9.162;2023-08-17T09:18:40;26.30;99.90
35541;DHT22;21650;48.840;9.162;2023-08-17T09:21:06;26.00;99.90
35541;DHT22;21650;48.840;9.162;2023-08-17T09:23:31;26.20;99.90
35541;DHT22;21650;48.840;9.162;2023-08-17T09:25:57;26.10;99.90
35541;DHT22;21650;48.840;9.162;2023-08-17T09:28:25;26.00;99.90
35541;DHT22;21650;48.840;9.162;2023-08-17T09:31:00;26.00;99.90
35541;DHT22;21650;48.840;9.162;2023-08-17T09:33:29;26.20;99.90
35541;DHT22;21650;48.840;9.162;2023-08-17T09:35:56;26.40;99.90
35541;DHT22;21650;48.840;9.162;2023-08-17T09:38:22;26.60;99.90
35541;DHT22;21650;48.840;9.162;2023-08-17T09:40:48;27.00;99.90
35541;DHT22;21650;48.840;9.162;2023-08-17T09:43:14;27.00;99.90
35541;DHT22;21650;48.840;9.162;2023-08-17T09:45:41;26.90;99.90
35541;DHT22;21650;48.840;9.162;2023-08-17T09:48:08;27.00;99.90
35541;DHT22;21650;48.840;9.162;2023-08-17T09:50:34;27.00;99.90
35541;DHT22;21650;48.840;9.162;2023-08-17T09:53:02;27.20;99.90
35541;DHT22;21650;48.840;9.162;2023-08-17T09:55:30;27.20;99.90
35541;DHT22;21650;48.840;9.162;2023-08-17T09:57:57;27.40;99.90
35541;DHT22;21650;48.840;9.162;2023-08-17T10:00:24;27.50;99.90
35541;DHT22;21650;48.840;9.162;2023-08-17T10:02:50;27.90;99.90
35541;DHT22;21650;48.840;9.162;2023-08-17T10:05:20;28.20;99.90
35541;DHT22;21650;48.840;9.162;2023-08-17T10:07:57;28.20;99.90
35541;DHT22;21650;48.840;9.162;2023-08-17T10:10:26;28.20;99.90
35541;DHT22;21650;48.840;9.162;2023-08-17T10:12:59;27.90;99.90
35541;DHT22;21650;48.840;9.162;2023-08-17T10:15:30;27.60;99.90
35541;DHT22;21650;48.840;9.162;2023-08-17T10:18:16;27.60;99.90
35541;DHT22;21650;48.840;9.162;2023-08-17T10:21:00;27.70;99.90
35541;DHT22;21650;48.840;9.162;2023-08-17T10:23:27;27.80;99.90
35541;DHT22;21650;48.840;9.162;2023-08-17T10:25:53;28.10;99.90
35541;DHT22;21650;48.840;9.162;2023-08-17T10:28:21;28.00;99.90
35541;DHT22;21650;48.840;9.162;2023-08-17T10:30:47;28.10;99.90
35541;DHT22;21650;48.840;9.162;2023-08-17T10:33:14;28.00;99.90
35541;DHT22;21650;48.840;9.162;2023-08-17T10:35:41;27.90;99.90
35541;DHT22;21650;48.840;9.162;2023-08-17T10:38:07;27.60;99.90
35541;DHT22;21650;48.840;9.162;2023-08-17T10:40:39;27.60;99.90
35541;DHT22;21650;48.840;9.162;2023-08-17T10:43:05;27.80;99.90
35541;DHT22;21650;48.840;9.162;2023-08-17T10:45:32;28.00;99.90
35541;DHT22;21650;48.840;9.162;2023-08-17T10:50:33;28.70;99.90
35541;DHT22;21650;48.840;9.162;2023-08-17T10:53:04;28.50;99.90
35541;DHT22;21650;48.840;9.162;2023-08-17T10:55:40;28.30;99.90
35541;DHT22;21650;48.840;9.162;2023-08-17T10:58:07;28.10;99.90
35541;DHT22;21650;48.840;9.162;2023-08-17T11:00:39;28.10;99.90
35541;DHT22;21650;48.840;9.162;2023-08-17T11:03:09;28.20;99.90
35541;DHT22;21650;48.840;9.162;2023-08-17T11:05:37;28.30;99.90
35541;DHT22;21650;48.840;9.162;2023-08-17T11:08:04;28.50;99.90
35541;DHT22;21650;48.840;9.162;2023-08-17T11:10:30;28.50;99.90
35541;DHT22;21650;48.840;9.162;2023-08-17T11:12:59;28.50;99.90
35541;DHT22;21650;48.840;9.162;2023-08-17T11:15:26;28.60;99.90
35541;DHT22;21650;48.840;9.162;2023-08-17T11:17:52;28.50;99.90
35541;DHT22;21650;48.840;9.162;2023-08-17T11:20:18;28.30;99.90
35541;DHT22;21650;48.840;9.162;2023-08-17T11:22:44;28.50;99.90
35541;DHT22;21650;48.840;9.162;2023-08-17T11:25:11;28.60;99.90
35541;DHT22;21650;48.840;9.162;2023-08-17T11:27:37;28.80;99.90
35541;DHT22;21650;48.840;9.162;2023-08-17T11:30:02;28.60;99.90
35541;DHT22;21650;48.840;9.162;2023-08-17T11:32:29;28.40;99.90
35541;DHT22;21650;48.840;9.162;2023-08-17T11:34:54;28.60;99.90
35541;DHT22;21650;48.840;9.162;2023-08-17T11:37:21;28.60;99.90
35541;DHT22;21650;48.840;9.162;2023-08-17T11:39:47;28.90;99.90
35541;DHT22;21650;48.840;9.162;2023-08-17T11:42:12;29.10;99.90
35541;DHT22;21650;48.840;9.162;2023-08-17T11:44:38;29.40;99.90
35541;DHT22;21650;48.840;9.162;2023-08-17T11:47:04;29.50;99.90
35541;DHT22;21650;48.840;9.162;2023-08-17T11:49:31;29.10;99.90
35541;DHT22;21650;48.840;9.162;2023-08-17T11:51:56;28.90;99.90
35541;DHT22;21650;48.840;9.162;2023-08-17T11:54:22;28.50;99.90
35541;DHT22;21650;48.840;9.162;2023-08-17T11:56:48;28.70;99.90
35541;DHT22;21650;48.840;9.162;2023-08-17T11:59:13;28.60;99.90
35541;DHT22;21650;48.840;9.162;2023-08-17T12:01:40;28.60;99.90
35541;DHT22;21650;48.840;9.162;2023-08-17T12:04:06;28.40;99.90
35541;DHT22;21650;48.840;9.162;2023-08-17T12:06:32;28.20;99.90
35541;DHT22;21650;48.840;9.162;2023-08-17T12:08:58;27.90;99.90
35541;DHT22;21650;48.840;9.162;2023-08-17T12:11:26;27.90;99.90
35541;DHT22;21650;48.840;9.162;2023-08-17T12:13:52;28.10;99.90
35541;DHT22;21650;48.840;9.162;2023-08-17T12:16:21;27.90;99.90
35541;DHT22;21650;48.840;9.162;2023-08-17T12:18:48;27.90;99.90
35541;DHT22;21650;48.840;9.162;2023-08-17T12:21:14;27.90;99.90
35541;DHT22;21650;48.840;9.162;2023-08-17T12:23:40;28.00;99.90
35541;DHT22;21650;48.840;9.162;2023-08-17T12:26:06;28.00;99.90
35541;DHT22;21650;48.840;9.162;2023-08-17T12:28:32;28.00;99.90
35541;DHT22;21650;48.840;9.162;2023-08-17T12:31:02;27.90;99.90
35541;DHT22;21650;48.840;9.162;2023-08-17T12:33:28;27.90;99.90
35541;DHT22;21650;48.840;9.162;2023-08-17T12:35:54;27.90;99.90
35541;DHT22;21650;48.840;9.162;2023-08-17T12:38:20;27.70;99.90
35541;DHT22;21650;48.840;9.162;2023-08-17T12:40:45;27.50;99.90
35541;DHT22;21650;48.840;9.162;2023-08-17T12:43:11;27.40;99.90
35541;DHT22;21650;48.840;9.162;2023-08-17T12:45:36;27.40;99.90
35541;DHT22;21650;48.840;9.162;2023-08-17T12:48:02;27.30;99.90
35541;DHT22;21650;48.840;9.162;2023-08-17T12:50:28;27.20;99.90
35541;DHT22;21650;48.840;9.162;2023-08-17T12:52:53;27.20;99.90
35541;DHT22;21650;48.840;9.162;2023-08-17T12:55:19;27.00;99.90
35541;DHT22;21650;48.840;9.162;2023-08-17T12:57:44;26.90;99.90
35541;DHT22;21650;48.840;9.162;2023-08-17T13:00:10;26.80;99.90
35541;DHT22;21650;48.840;9.162;2023-08-17T13:02:36;26.90;99.90
35541;DHT22;21650;48.840;9.162;2023-08-17T13:05:01;26.90;99.90
35541;DHT22;21650;48.840;9.162;2023-08-17T13:07:27;26.80;99.90
35541;DHT22;21650;48.840;9.162;2023-08-17T13:09:53;26.60;99.90
35541;DHT22;21650;48.840;9.162;2023-08-17T13:12:18;26.30;99.90
35541;DHT22;21650;48.840;9.162;2023-08-17T13:14:44;26.10;99.90
35541;DHT22;21650;48.840;9.162;2023-08-17T13:17:09;26.10;99.90
35541;DHT22;21650;48.840;9.162;2023-08-17T13:19:35;25.90;99.90
35541;DHT22;21650;48.840;9.162;2023-08-17T13:22:01;25.60;99.90
35541;DHT22;21650;48.840;9.162;2023-08-17T13:24:28;25.40;99.90
35541;DHT22;21650;48.840;9.162;2023-08-17T13:26:53;25.10;99.90
35541;DHT22;21650;48.840;9.162;2023-08-17T13:29:20;24.80;99.90
35541;DHT22;21650;48.840;9.162;2023-08-17T13:31:47;24.60;99.90
35541;DHT22;21650;48.840;9.162;2023-08-17T13:34:13;24.50;99.90
35541;DHT22;21650;48.840;9.162;2023-08-17T13:36:39;24.40;99.90
35541;DHT22;21650;48.840;9.162;2023-08-17T13:39:06;24.30;99.90
35541;DHT22;21650;48.840;9.162;2023-08-17T13:41:32;24.20;99.90
35541;DHT22;21650;48.840;9.162;2023-08-17T13:43:57;24.20;99.90
35541;DHT22;21650;48.840;9.162;2023-08-17T13:46:23;24.20;99.90
35541;DHT22;21650;48.840;9.162;2023-08-17T13:48:48;24.20;99.90
35541;DHT22;21650;48.840;9.162;2023-08-17T13:51:14;24.00;99.90
35541;DHT22;21650;48.840;9.162;2023-08-17T13:53:40;23.80;99.90
35541;DHT22;21650;48.840;9.162;2023-08-17T13:56:05;23.80;99.90
35541;DHT22;21650;48.840;9.162;2023-08-17T13:58:31;23.70;99.90
35541;DHT22;21650;48.840;9.162;2023-08-17T14:00:57;23.60;99.90
35541;DHT22;21650;48.840;9.162;2023-08-17T14:03:23;23.50;99.90
35541;DHT22;21650;48.840;9.162;2023-08-17T14:05:48;23.50;99.90
35541;DHT22;21650;48.840;9.162;2023-08-17T14:08:14;23.70;99.90
35541;DHT22;21650;48.840;9.162;2023-08-17T14:10:39;23.70;99.90
35541;DHT22;21650;48.840;9.162;2023-08-17T14:13:05;23.90;99.90
35541;DHT22;21650;48.840;9.162;2023-08-17T14:15:31;23.90;99.90
35541;DHT22;21650;48.840;9.162;2023-08-17T14:17:56;23.80;99.90
35541;DHT22;21650;48.840;9.162;2023-08-17T14:20:22;23.80;99.90
35541;DHT22;21650;48.840;9.162;2023-08-17T14:22:48;24.00;99.90
35541;DHT22;21650;48.840;9.162;2023-08-17T14:25:13;24.00;99.90
35541;DHT22;21650;48.840;9.162;2023-08-17T14:27:39;24.00;99.90
35541;DHT22;21650;48.840;9.162;2023-08-17T14:30:06;24.10;99.90
35541;DHT22;21650;48.840;9.162;2023-08-17T14:32:31;24.10;99.90
35541;DHT22;21650;48.840;9.162;2023-08-17T14:34:57;24.10;99.90
35541;DHT22;21650;48.840;9.162;2023-08-17T14:37:22;24.20;99.90
35541;DHT22;21650;48.840;9.162;2023-08-17T14:39:48;24.30;99.90
35541;DHT22;21650;48.840;9.162;2023-08-17T14:42:13;24.30;99.90
35541;DHT22;21650;48.840;9.162;2023-08-17T14:44:39;24.30;99.90
35541;DHT22;21650;48.840;9.162;2023-08-17T14:47:05;24.40;99.90
35541;DHT22;21650;48.840;9.162;2023-08-17T14:49:30;24.50;99.90
35541;DHT22;21650;48.840;9.162;2023-08-17T14:51:56;24.50;99.90
35541;DHT22;21650;48.840;9.162;2023-08-17T14:54:21;24.60;99.90
35541;DHT22;21650;48.840;9.162;2023-08-17T14:56:47;24.60;99.90
35541;DHT22;21650;48.840;9.162;2023-08-17T14:59:12;24.70;99.90
35541;DHT22;21650;48.840;9.162;2023-08-17T15:01:38;24.80;99.90
35541;DHT22;21650;48.840;9.162;2023-08-17T15:04:04;24.90;99.90
35541;DHT22;21650;48.840;9.162;2023-08-17T15:06:29;24.90;99.90
35541;DHT22;21650;48.840;9.162;2023-08-17T15:08:55;25.00;99.90
35541;DHT22;21650;48.840;9.162;2023-08-17T15:11:20;24.90;99.90
35541;DHT22;21650;48.840;9.162;2023-08-17T15:13:46;25.00;99.90
35541;DHT22;21650;48.840;9.162;2023-08-17T15:16:11;25.10;99.90
35541;DHT22;21650;48.840;9.162;2023-08-17T15:18:38;25.20;99.90
35541;DHT22;21650;48.840;9.162;2023-08-17T15:21:04;25.10;99.90
35541;DHT22;21650;48.840;9.162;2023-08-17T15:23:29;25.20;99.90
35541;DHT22;21650;48.840;9.162;2023-08-17T15:25:55;25.20;99.90
35541;DHT22;21650;48.840;9.162;2023-08-17T15:28:20;25.20;99.90
35541;DHT22;21650;48.840;9.162;2023-08-17T15:30:49;25.30;99.90